»·PEaware :: DAL6154 KLAX-KPDX

DAL6154 :: KLAX-KPDX

FLIGHT INFORMATION

Flight Status: Arrived
Operator:
Delta Air Lines
More flights by this operator :: More flights under this callsign
Pilot: Tyler J. (19619)
Aircraft: BOEING 717-200
(B712)
More flights by this aircraft type
Origin: KLAX Los Angeles Intl
United States
Destination: KPDX Portland Intl
United States
More flights between these airports :: More routes between these airports
Route: +LADYJ4 CSTRO DUCKE LMT MOXEE TMBRS2
File this flight plan on PilotEdge
Remarks:
Altitude:
(Current/Filed)
34,000ft
Speed:
(Current/Filed)
430kts
Departed: 01-Aug-18 08:00 PM
Arrived: 01-Aug-18 09:45 PM
Distance/Time
Traveled:
725nm/1:44
Distance/Time
To Go:
Arrived

Flight Plot

Page will automatically refresh every two minutes.

Flight plan parsing failed; only flown route is shown


Map Options




Map Legend


Flown Route
Filed Route
Departure Airport
Arrival Airport
Navaid (VOR, NDB)
Fix

Horizontal Profiles

Position Reports

Time Latitude Longitude Heading Altitude Ground
Speed
01-Aug-18 19:37 33.939850 -118.404336 356 134ft 0kts
01-Aug-18 19:38 33.939850 -118.404336 356 134ft 0kts
01-Aug-18 19:39 33.939850 -118.404336 356 134ft 0kts
01-Aug-18 19:40 33.939850 -118.404336 356 134ft 0kts
01-Aug-18 19:41 33.939850 -118.404336 356 134ft 0kts
01-Aug-18 19:42 33.939850 -118.404336 356 134ft 0kts
01-Aug-18 19:43 33.939850 -118.404336 356 134ft 0kts
01-Aug-18 19:44 33.939850 -118.404336 356 134ft 0kts
01-Aug-18 19:45 33.939850 -118.404336 356 134ft 0kts
01-Aug-18 19:46 33.939850 -118.404336 356 134ft 0kts
01-Aug-18 19:47 33.939850 -118.404336 356 134ft 0kts
01-Aug-18 19:48 33.939850 -118.404336 356 134ft 0kts
01-Aug-18 19:49 33.939850 -118.404336 356 134ft 0kts
01-Aug-18 19:50 33.939850 -118.404336 356 134ft 0kts
01-Aug-18 19:51 33.939850 -118.404336 356 134ft 0kts
01-Aug-18 19:52 33.939498 -118.404332 5 134ft 2kts
01-Aug-18 19:53 33.939134 -118.404751 82 134ft 1kts
01-Aug-18 19:54 33.939134 -118.404756 82 134ft 0kts
01-Aug-18 19:55 33.939187 -118.404242 82 134ft 12kts
01-Aug-18 19:56 33.939744 -118.398692 82 134ft 13kts
01-Aug-18 19:57 33.940252 -118.393926 83 134ft 17kts
01-Aug-18 19:58 33.939900 -118.389302 87 134ft 14kts
01-Aug-18 19:59 33.940564 -118.383055 83 134ft 16kts
01-Aug-18 20:00 33.939893 -118.380482 261 134ft 5kts
01-Aug-18 20:01 33.937020 -118.408718 262 339ft 178kts
01-Aug-18 20:02 33.930763 -118.471148 263 3117ft 206kts
01-Aug-18 20:03 33.932140 -118.545808 300 4746ft 254kts
01-Aug-18 20:04 33.969660 -118.624148 297 6951ft 278kts
01-Aug-18 20:05 34.031864 -118.673968 357 9410ft 295kts
01-Aug-18 20:06 34.119436 -118.661869 10 10593ft 353kts
01-Aug-18 20:07 34.223309 -118.637514 7 11324ft 396kts
01-Aug-18 20:08 34.333198 -118.652435 348 12958ft 402kts
01-Aug-18 20:09 34.444379 -118.677314 350 14518ft 411kts
01-Aug-18 20:10 34.558820 -118.699624 350 16052ft 421kts
01-Aug-18 20:11 34.675967 -118.722550 351 17493ft 431kts
01-Aug-18 20:12 34.787839 -118.777506 330 18876ft 442kts
01-Aug-18 20:13 34.896214 -118.852299 330 20094ft 454kts
01-Aug-18 20:14 35.007175 -118.928738 330 21365ft 462kts
01-Aug-18 20:15 35.120348 -119.006960 330 22494ft 472kts
01-Aug-18 20:16 35.235609 -119.086877 330 23614ft 480kts
01-Aug-18 20:17 35.352541 -119.168230 329 24639ft 487kts
01-Aug-18 20:18 35.473691 -119.243978 342 25699ft 492kts
01-Aug-18 20:19 35.605208 -119.288796 343 27046ft 489kts
01-Aug-18 20:20 35.733283 -119.332876 343 28534ft 483kts
01-Aug-18 20:21 35.862562 -119.377498 342 29921ft 481kts
01-Aug-18 20:22 35.990718 -119.421880 342 31264ft 478kts
01-Aug-18 20:23 36.118382 -119.466237 341 32565ft 476kts
01-Aug-18 20:24 36.245898 -119.510697 341 33752ft 475kts
01-Aug-18 20:25 36.372844 -119.555102 341 33895ft 472kts
01-Aug-18 20:26 36.478318 -119.592118 341 33896ft 472kts
01-Aug-18 20:27 36.625754 -119.644030 341 33897ft 472kts
01-Aug-18 20:28 36.730886 -119.681171 341 33896ft 472kts
01-Aug-18 20:29 36.857699 -119.726114 341 33908ft 472kts
01-Aug-18 20:30 37.005398 -119.778656 341 33928ft 473kts
01-Aug-18 20:31 37.110875 -119.816308 341 33955ft 473kts
01-Aug-18 20:32 37.258521 -119.869195 341 34002ft 474kts
01-Aug-18 20:33 37.361724 -119.906292 341 34022ft 474kts
01-Aug-18 20:34 37.488404 -119.951974 341 34066ft 476kts
01-Aug-18 20:35 37.615920 -119.998120 341 34141ft 476kts
01-Aug-18 20:36 37.742983 -120.044271 340 34000ft 475kts
01-Aug-18 20:37 37.870649 -120.090815 340 34010ft 477kts
01-Aug-18 20:38 37.998311 -120.136795 340 34042ft 477kts
01-Aug-18 20:39 38.125974 -120.182775 340 34080ft 478kts
01-Aug-18 20:40 38.253648 -120.228922 340 34079ft 477kts
01-Aug-18 20:41 38.381733 -120.275388 340 34043ft 477kts
01-Aug-18 20:42 38.509336 -120.321853 340 34075ft 478kts
01-Aug-18 20:43 38.636957 -120.368492 340 34094ft 477kts
01-Aug-18 20:44 38.764687 -120.415347 340 34107ft 478kts
01-Aug-18 20:45 38.892581 -120.462437 340 34133ft 478kts
01-Aug-18 20:46 39.020806 -120.509825 340 34130ft 478kts
01-Aug-18 20:47 39.148690 -120.557266 340 34138ft 478kts
01-Aug-18 20:48 39.276699 -120.604936 340 34135ft 478kts
01-Aug-18 20:49 39.400762 -120.651304 340 34146ft 477kts
01-Aug-18 20:50 39.527946 -120.699026 340 34149ft 476kts
01-Aug-18 20:51 39.655393 -120.747026 339 34110ft 476kts
01-Aug-18 20:52 39.782229 -120.794978 339 34104ft 476kts
01-Aug-18 20:53 39.909748 -120.843375 339 34118ft 476kts
01-Aug-18 20:54 40.036819 -120.891790 339 34112ft 476kts
01-Aug-18 20:55 40.163814 -120.940361 339 34088ft 476kts
01-Aug-18 20:56 40.291095 -120.989236 339 34050ft 476kts
01-Aug-18 20:57 40.418008 -121.038163 338 34050ft 476kts
01-Aug-18 20:58 40.544827 -121.087243 338 34046ft 475kts
01-Aug-18 20:59 40.672189 -121.136728 338 34044ft 475kts
01-Aug-18 21:00 40.798920 -121.186166 338 34043ft 476kts
01-Aug-18 21:01 40.925894 -121.235896 338 34046ft 476kts
01-Aug-18 21:02 41.049328 -121.284433 337 34066ft 477kts
01-Aug-18 21:03 41.176547 -121.334655 337 34079ft 477kts
01-Aug-18 21:04 41.304025 -121.385182 337 34102ft 477kts
01-Aug-18 21:05 41.431329 -121.435852 337 34100ft 478kts
01-Aug-18 21:06 41.559008 -121.486878 337 34096ft 478kts
01-Aug-18 21:07 41.686548 -121.538058 336 34102ft 478kts
01-Aug-18 21:08 41.814000 -121.589415 337 34108ft 478kts
01-Aug-18 21:09 41.941424 -121.640978 336 34105ft 478kts
01-Aug-18 21:10 42.068697 -121.692697 336 34099ft 478kts
01-Aug-18 21:11 42.195089 -121.747732 332 34104ft 475kts
01-Aug-18 21:12 42.319033 -121.809670 332 34105ft 475kts
01-Aug-18 21:13 42.442980 -121.871641 332 34100ft 475kts
01-Aug-18 21:14 42.567080 -121.933958 332 34093ft 475kts
01-Aug-18 21:15 42.686027 -121.993937 332 34094ft 475kts
01-Aug-18 21:16 42.809796 -122.056610 332 34091ft 475kts
01-Aug-18 21:17 42.933475 -122.119500 331 34089ft 475kts
01-Aug-18 21:18 43.057515 -122.182852 331 34086ft 474kts
01-Aug-18 21:19 43.180892 -122.246140 331 34084ft 474kts
01-Aug-18 21:20 43.304715 -122.309921 331 34082ft 473kts
01-Aug-18 21:21 43.427923 -122.373675 330 34080ft 474kts
01-Aug-18 21:22 43.551014 -122.437671 330 33592ft 481kts
01-Aug-18 21:23 43.675801 -122.502743 331 31313ft 472kts
01-Aug-18 21:24 43.799085 -122.567425 332 29124ft 476kts
01-Aug-18 21:25 43.923104 -122.632729 333 26912ft 480kts
01-Aug-18 21:26 44.047145 -122.698297 333 24447ft 463kts
01-Aug-18 21:27 44.166492 -122.750215 352 23972ft 459kts
01-Aug-18 21:28 44.293001 -122.738634 0 21794ft 446kts
01-Aug-18 21:29 44.410002 -122.727175 0 19939ft 426kts
01-Aug-18 21:30 44.526102 -122.715683 0 18095ft 409kts
01-Aug-18 21:31 44.637079 -122.704617 1 16308ft 392kts
01-Aug-18 21:32 44.743428 -122.693940 1 14566ft 375kts
01-Aug-18 21:33 44.845611 -122.683653 1 12942ft 358kts
01-Aug-18 21:34 44.942615 -122.673902 1 11474ft 341kts
01-Aug-18 21:35 45.033450 -122.664677 1 10683ft 306kts
01-Aug-18 21:36 45.115195 -122.656409 1 9772ft 288kts
01-Aug-18 21:37 45.194024 -122.648387 2 8384ft 280kts
01-Aug-18 21:38 45.268708 -122.624659 28 7250ft 277kts
01-Aug-18 21:39 45.333223 -122.567401 30 6079ft 271kts
01-Aug-18 21:40 45.394611 -122.513022 30 5377ft 235kts
01-Aug-18 21:41 45.447823 -122.467694 27 3979ft 215kts
01-Aug-18 21:42 45.497835 -122.441499 357 2626ft 176kts
01-Aug-18 21:43 45.535452 -122.475358 311 1775ft 157kts
01-Aug-18 21:44 45.558061 -122.527253 301 916ft 146kts
01-Aug-18 21:45 45.578212 -122.578145 301 187ft 151kts
01-Aug-18 21:46 45.591701 -122.612612 297 38ft 40kts
01-Aug-18 21:47 45.592861 -122.611287 118 38ft 22kts
01-Aug-18 21:48 45.591718 -122.603974 89 38ft 14kts
01-Aug-18 21:49 45.592115 -122.598529 48 38ft 17kts
01-Aug-18 21:50 45.592049 -122.593917 141 38ft 8kts
01-Aug-18 21:51 45.591317 -122.594112 203 38ft 0kts
01-Aug-18 21:52 45.591317 -122.594112 203 38ft 0kts

Navigation Log

Ident Type
Flight plan parsing failed, navigation log unavailable